aviador You're here:

KFDW Decoded Metar

FAIRFIELD COUNTY AIRPORT in SC, USA
Report Time2017-06-27 04:55:00
UTC Time2017-06-27 05:09:03
Flight Rules vfr VFR
WindCalm
Visibility9999 m
Phenomena:N/A
Clouds:N/A
Expected CloudBase > 2,400 ft AGL from Temp-Dew spread
CeilingNone
Temp21°C (ISA +7)
Dew Point15°C (69% RH)
QNH1018 hPa
Density Alt1,473 ft
Elevation577 ft
Report Wrong Elevation
Raw Report
METAR KFDW 270455Z AUTO 00000KT 10SM CLR 21/15 A3006 RMK AO1=

Extra information for KFDW:More info

Metar Taf Metar & Taf Last 4 Metars F.Rules Stats Wind Profile Meteogram Temp Stats Airport Information Weather charts Add Link Nearby VenuesMetar ALERT Operation Metar Decoded Social comments

AIRNAV info for KFDW